sensor_id;sensor_type;location;lat;lon;timestamp;temperature;humidity
24164;DHT22;12319;49.204;8.116;2024-03-08T00:01:00;7.00;95.40
24164;DHT22;12319;49.204;8.116;2024-03-08T00:03:26;7.00;95.70
24164;DHT22;12319;49.204;8.116;2024-03-08T00:05:52;7.00;96.20
24164;DHT22;12319;49.204;8.116;2024-03-08T00:08:17;6.90;95.80
24164;DHT22;12319;49.204;8.116;2024-03-08T00:10:43;6.90;95.90
24164;DHT22;12319;49.204;8.116;2024-03-08T00:13:09;6.80;95.50
24164;DHT22;12319;49.204;8.116;2024-03-08T00:15:34;6.80;95.70
24164;DHT22;12319;49.204;8.116;2024-03-08T00:18:00;6.80;95.80
24164;DHT22;12319;49.204;8.116;2024-03-08T00:20:25;6.80;96.00
24164;DHT22;12319;49.204;8.116;2024-03-08T00:22:51;6.80;96.10
24164;DHT22;12319;49.204;8.116;2024-03-08T00:25:16;6.70;95.80
24164;DHT22;12319;49.204;8.116;2024-03-08T00:27:42;6.70;96.20
24164;DHT22;12319;49.204;8.116;2024-03-08T00:30:08;6.70;96.40
24164;DHT22;12319;49.204;8.116;2024-03-08T00:32:34;6.70;96.20
24164;DHT22;12319;49.204;8.116;2024-03-08T00:35:00;6.60;96.30
24164;DHT22;12319;49.204;8.116;2024-03-08T00:37:26;6.60;96.90
24164;DHT22;12319;49.204;8.116;2024-03-08T00:39:51;6.50;96.60
24164;DHT22;12319;49.204;8.116;2024-03-08T00:42:18;6.50;96.30
24164;DHT22;12319;49.204;8.116;2024-03-08T00:44:43;6.50;96.60
24164;DHT22;12319;49.204;8.116;2024-03-08T00:47:10;6.40;96.50
24164;DHT22;12319;49.204;8.116;2024-03-08T00:49:35;6.40;96.30
24164;DHT22;12319;49.204;8.116;2024-03-08T00:52:04;6.40;96.60
24164;DHT22;12319;49.204;8.116;2024-03-08T00:54:34;6.30;96.60
24164;DHT22;12319;49.204;8.116;2024-03-08T00:57:01;6.30;96.70
24164;DHT22;12319;49.204;8.116;2024-03-08T00:59:31;6.30;96.40
24164;DHT22;12319;49.204;8.116;2024-03-08T01:02:00;6.20;96.70
24164;DHT22;12319;49.204;8.116;2024-03-08T01:04:26;6.20;96.80
24164;DHT22;12319;49.204;8.116;2024-03-08T01:06:55;6.20;96.80
24164;DHT22;12319;49.204;8.116;2024-03-08T01:09:22;6.20;97.10
24164;DHT22;12319;49.204;8.116;2024-03-08T01:11:47;6.10;97.00
24164;DHT22;12319;49.204;8.116;2024-03-08T01:14:13;6.20;96.90
24164;DHT22;12319;49.204;8.116;2024-03-08T01:16:38;6.10;97.30
24164;DHT22;12319;49.204;8.116;2024-03-08T01:19:04;6.10;97.00
24164;DHT22;12319;49.204;8.116;2024-03-08T01:21:29;6.00;97.20
24164;DHT22;12319;49.204;8.116;2024-03-08T01:23:55;6.00;97.30
24164;DHT22;12319;49.204;8.116;2024-03-08T01:26:20;6.00;97.50
24164;DHT22;12319;49.204;8.116;2024-03-08T01:28:46;6.00;97.50
24164;DHT22;12319;49.204;8.116;2024-03-08T01:31:11;5.90;97.40
24164;DHT22;12319;49.204;8.116;2024-03-08T01:33:37;5.90;97.50
24164;DHT22;12319;49.204;8.116;2024-03-08T01:36:03;5.90;97.80
24164;DHT22;12319;49.204;8.116;2024-03-08T01:38:28;5.80;97.80
24164;DHT22;12319;49.204;8.116;2024-03-08T01:40:54;5.80;97.80
24164;DHT22;12319;49.204;8.116;2024-03-08T01:43:25;5.80;97.80
24164;DHT22;12319;49.204;8.116;2024-03-08T01:45:53;5.80;98.00
24164;DHT22;12319;49.204;8.116;2024-03-08T01:48:19;5.70;98.00
24164;DHT22;12319;49.204;8.116;2024-03-08T01:50:47;5.70;98.20
24164;DHT22;12319;49.204;8.116;2024-03-08T01:53:13;5.60;98.30
24164;DHT22;12319;49.204;8.116;2024-03-08T01:55:40;5.60;98.40
24164;DHT22;12319;49.204;8.116;2024-03-08T01:58:06;5.60;98.50
24164;DHT22;12319;49.204;8.116;2024-03-08T02:00:35;5.50;98.60
24164;DHT22;12319;49.204;8.116;2024-03-08T02:03:02;5.50;98.70
24164;DHT22;12319;49.204;8.116;2024-03-08T02:05:28;5.50;98.70
24164;DHT22;12319;49.204;8.116;2024-03-08T02:07:54;5.40;98.80
24164;DHT22;12319;49.204;8.116;2024-03-08T02:10:19;5.40;99.00
24164;DHT22;12319;49.204;8.116;2024-03-08T02:12:46;5.40;99.00
24164;DHT22;12319;49.204;8.116;2024-03-08T02:15:12;5.30;99.00
24164;DHT22;12319;49.204;8.116;2024-03-08T02:17:38;5.30;99.00
24164;DHT22;12319;49.204;8.116;2024-03-08T02:20:03;5.30;99.00
24164;DHT22;12319;49.204;8.116;2024-03-08T02:22:30;5.30;99.10
24164;DHT22;12319;49.204;8.116;2024-03-08T02:24:59;5.20;99.10
24164;DHT22;12319;49.204;8.116;2024-03-08T02:27:27;5.20;99.20
24164;DHT22;12319;49.204;8.116;2024-03-08T02:29:55;5.20;99.30
24164;DHT22;12319;49.204;8.116;2024-03-08T02:32:23;5.10;99.30
24164;DHT22;12319;49.204;8.116;2024-03-08T02:34:50;5.10;99.40
24164;DHT22;12319;49.204;8.116;2024-03-08T02:37:18;5.00;99.50
24164;DHT22;12319;49.204;8.116;2024-03-08T02:39:44;5.00;99.50
24164;DHT22;12319;49.204;8.116;2024-03-08T02:42:10;4.90;99.50
24164;DHT22;12319;49.204;8.116;2024-03-08T02:44:36;4.90;99.60
24164;DHT22;12319;49.204;8.116;2024-03-08T02:47:01;4.90;99.80
24164;DHT22;12319;49.204;8.116;2024-03-08T02:49:27;4.90;99.80
24164;DHT22;12319;49.204;8.116;2024-03-08T02:51:53;4.80;99.70
24164;DHT22;12319;49.204;8.116;2024-03-08T02:54:19;4.80;99.90
24164;DHT22;12319;49.204;8.116;2024-03-08T02:56:46;4.70;99.90
24164;DHT22;12319;49.204;8.116;2024-03-08T02:59:13;4.70;99.90
24164;DHT22;12319;49.204;8.116;2024-03-08T03:01:38;4.60;99.90
24164;DHT22;12319;49.204;8.116;2024-03-08T03:04:04;4.60;99.90
24164;DHT22;12319;49.204;8.116;2024-03-08T03:06:30;4.60;99.90
24164;DHT22;12319;49.204;8.116;2024-03-08T03:08:57;4.60;99.90
24164;DHT22;12319;49.204;8.116;2024-03-08T03:11:23;4.50;99.90
24164;DHT22;12319;49.204;8.116;2024-03-08T03:13:48;4.50;99.90
24164;DHT22;12319;49.204;8.116;2024-03-08T03:16:18;4.40;99.90
24164;DHT22;12319;49.204;8.116;2024-03-08T03:18:45;4.40;99.90
24164;DHT22;12319;49.204;8.116;2024-03-08T03:21:11;4.40;99.90
24164;DHT22;12319;49.204;8.116;2024-03-08T03:23:41;4.40;99.90
24164;DHT22;12319;49.204;8.116;2024-03-08T03:26:08;4.40;99.90
24164;DHT22;12319;49.204;8.116;2024-03-08T03:28:33;4.30;99.90
24164;DHT22;12319;49.204;8.116;2024-03-08T03:30:59;4.30;99.90
24164;DHT22;12319;49.204;8.116;2024-03-08T03:33:25;4.30;99.90
24164;DHT22;12319;49.204;8.116;2024-03-08T03:35:51;4.30;99.90
24164;DHT22;12319;49.204;8.116;2024-03-08T03:38:17;4.30;99.90
24164;DHT22;12319;49.204;8.116;2024-03-08T03:40:43;4.30;99.90
24164;DHT22;12319;49.204;8.116;2024-03-08T03:43:10;4.20;99.90
24164;DHT22;12319;49.204;8.116;2024-03-08T03:45:36;4.20;99.90
24164;DHT22;12319;49.204;8.116;2024-03-08T03:48:03;4.20;99.90
24164;DHT22;12319;49.204;8.116;2024-03-08T03:50:29;4.10;99.90
24164;DHT22;12319;49.204;8.116;2024-03-08T03:52:55;4.10;99.90
24164;DHT22;12319;49.204;8.116;2024-03-08T03:55:21;4.10;99.90
24164;DHT22;12319;49.204;8.116;2024-03-08T03:57:47;4.00;99.90
24164;DHT22;12319;49.204;8.116;2024-03-08T04:00:13;4.00;99.90
24164;DHT22;12319;49.204;8.116;2024-03-08T04:02:39;4.00;99.90
24164;DHT22;12319;49.204;8.116;2024-03-08T04:05:06;3.90;99.90
24164;DHT22;12319;49.204;8.116;2024-03-08T04:07:32;3.90;99.90
24164;DHT22;12319;49.204;8.116;2024-03-08T04:09:57;3.90;99.90
24164;DHT22;12319;49.204;8.116;2024-03-08T04:12:23;4.00;99.90
24164;DHT22;12319;49.204;8.116;2024-03-08T04:14:48;3.90;99.90
24164;DHT22;12319;49.204;8.116;2024-03-08T04:17:14;3.90;99.90
24164;DHT22;12319;49.204;8.116;2024-03-08T04:19:39;3.90;99.90
24164;DHT22;12319;49.204;8.116;2024-03-08T04:22:06;3.90;99.90
24164;DHT22;12319;49.204;8.116;2024-03-08T04:24:33;3.80;99.90
24164;DHT22;12319;49.204;8.116;2024-03-08T04:26:58;3.80;99.90
24164;DHT22;12319;49.204;8.116;2024-03-08T04:29:24;3.70;99.90
24164;DHT22;12319;49.204;8.116;2024-03-08T04:31:50;3.70;99.90
24164;DHT22;12319;49.204;8.116;2024-03-08T04:34:20;3.70;99.90
24164;DHT22;12319;49.204;8.116;2024-03-08T04:36:45;3.60;99.90
24164;DHT22;12319;49.204;8.116;2024-03-08T04:39:11;3.60;99.90
24164;DHT22;12319;49.204;8.116;2024-03-08T04:41:38;3.60;99.90
24164;DHT22;12319;49.204;8.116;2024-03-08T04:44:04;3.60;99.90
24164;DHT22;12319;49.204;8.116;2024-03-08T04:46:30;3.60;99.90
24164;DHT22;12319;49.204;8.116;2024-03-08T04:48:56;3.60;99.90
24164;DHT22;12319;49.204;8.116;2024-03-08T04:51:22;3.60;99.90
24164;DHT22;12319;49.204;8.116;2024-03-08T04:53:47;3.60;99.90
24164;DHT22;12319;49.204;8.116;2024-03-08T04:56:13;3.50;99.90
24164;DHT22;12319;49.204;8.116;2024-03-08T04:58:38;3.50;99.90
24164;DHT22;12319;49.204;8.116;2024-03-08T05:01:04;3.50;99.90
24164;DHT22;12319;49.204;8.116;2024-03-08T05:03:30;3.50;99.90
24164;DHT22;12319;49.204;8.116;2024-03-08T05:05:55;3.40;99.90
24164;DHT22;12319;49.204;8.116;2024-03-08T05:08:21;3.40;99.90
24164;DHT22;12319;49.204;8.116;2024-03-08T05:10:47;3.40;99.90
24164;DHT22;12319;49.204;8.116;2024-03-08T05:13:13;3.40;99.90
24164;DHT22;12319;49.204;8.116;2024-03-08T05:15:38;4.00;99.90
24164;DHT22;12319;49.204;8.116;2024-03-08T05:18:04;3.40;99.90
24164;DHT22;12319;49.204;8.116;2024-03-08T05:20:30;3.30;99.90
24164;DHT22;12319;49.204;8.116;2024-03-08T05:22:56;3.30;99.90
24164;DHT22;12319;49.204;8.116;2024-03-08T05:25:24;3.30;99.90
24164;DHT22;12319;49.204;8.116;2024-03-08T05:27:49;3.30;99.90
24164;DHT22;12319;49.204;8.116;2024-03-08T05:30:15;3.30;99.90
24164;DHT22;12319;49.204;8.116;2024-03-08T05:32:43;3.20;99.90
24164;DHT22;12319;49.204;8.116;2024-03-08T05:35:12;3.20;99.90
24164;DHT22;12319;49.204;8.116;2024-03-08T05:37:38;3.20;99.90
24164;DHT22;12319;49.204;8.116;2024-03-08T05:40:05;3.20;99.90
24164;DHT22;12319;49.204;8.116;2024-03-08T05:42:34;3.20;99.90
24164;DHT22;12319;49.204;8.116;2024-03-08T05:45:00;3.20;99.90
24164;DHT22;12319;49.204;8.116;2024-03-08T05:47:26;3.20;99.90
24164;DHT22;12319;49.204;8.116;2024-03-08T05:49:51;3.20;99.90
24164;DHT22;12319;49.204;8.116;2024-03-08T05:52:18;3.20;99.90
24164;DHT22;12319;49.204;8.116;2024-03-08T05:54:44;3.20;99.90
24164;DHT22;12319;49.204;8.116;2024-03-08T05:57:11;3.20;99.90
24164;DHT22;12319;49.204;8.116;2024-03-08T05:59:36;3.20;99.90
24164;DHT22;12319;49.204;8.116;2024-03-08T06:02:02;3.20;99.90
24164;DHT22;12319;49.204;8.116;2024-03-08T06:04:28;3.20;99.90
24164;DHT22;12319;49.204;8.116;2024-03-08T06:06:54;3.20;99.90
24164;DHT22;12319;49.204;8.116;2024-03-08T06:09:23;3.20;99.90
24164;DHT22;12319;49.204;8.116;2024-03-08T06:11:49;3.30;99.90
24164;DHT22;12319;49.204;8.116;2024-03-08T06:14:14;3.30;99.90
24164;DHT22;12319;49.204;8.116;2024-03-08T06:16:44;3.30;99.90
24164;DHT22;12319;49.204;8.116;2024-03-08T06:19:10;3.30;99.90
24164;DHT22;12319;49.204;8.116;2024-03-08T06:21:35;3.30;99.90
24164;DHT22;12319;49.204;8.116;2024-03-08T06:24:01;3.40;99.90
24164;DHT22;12319;49.204;8.116;2024-03-08T06:26:27;3.40;99.90
24164;DHT22;12319;49.204;8.116;2024-03-08T06:28:55;3.50;99.90
24164;DHT22;12319;49.204;8.116;2024-03-08T06:31:21;3.50;99.90
24164;DHT22;12319;49.204;8.116;2024-03-08T06:33:47;3.50;99.90
24164;DHT22;12319;49.204;8.116;2024-03-08T06:36:16;3.60;99.90
24164;DHT22;12319;49.204;8.116;2024-03-08T06:38:47;3.60;99.90
24164;DHT22;12319;49.204;8.116;2024-03-08T06:41:12;3.60;99.90
24164;DHT22;12319;49.204;8.116;2024-03-08T06:43:41;3.70;99.90
24164;DHT22;12319;49.204;8.116;2024-03-08T06:46:06;3.70;99.90
24164;DHT22;12319;49.204;8.116;2024-03-08T06:48:32;3.80;99.90
24164;DHT22;12319;49.204;8.116;2024-03-08T06:50:58;3.80;99.90
24164;DHT22;12319;49.204;8.116;2024-03-08T06:53:23;3.90;99.90
24164;DHT22;12319;49.204;8.116;2024-03-08T06:55:50;4.00;99.90
24164;DHT22;12319;49.204;8.116;2024-03-08T06:58:16;4.00;99.90
24164;DHT22;12319;49.204;8.116;2024-03-08T07:00:41;4.10;99.90
24164;DHT22;12319;49.204;8.116;2024-03-08T07:03:08;4.20;99.90
24164;DHT22;12319;49.204;8.116;2024-03-08T07:05:37;4.20;99.90
24164;DHT22;12319;49.204;8.116;2024-03-08T07:08:03;4.40;99.90
24164;DHT22;12319;49.204;8.116;2024-03-08T07:10:29;4.40;99.90
24164;DHT22;12319;49.204;8.116;2024-03-08T07:12:54;4.50;99.90
24164;DHT22;12319;49.204;8.116;2024-03-08T07:15:21;4.60;99.90
24164;DHT22;12319;49.204;8.116;2024-03-08T07:17:47;4.70;99.90
24164;DHT22;12319;49.204;8.116;2024-03-08T07:20:13;4.70;99.90
24164;DHT22;12319;49.204;8.116;2024-03-08T07:22:41;4.80;99.90
24164;DHT22;12319;49.204;8.116;2024-03-08T07:25:07;4.90;99.90
24164;DHT22;12319;49.204;8.116;2024-03-08T07:27:33;5.00;99.90
24164;DHT22;12319;49.204;8.116;2024-03-08T07:30:05;5.10;99.90
24164;DHT22;12319;49.204;8.116;2024-03-08T07:32:31;5.20;99.90
24164;DHT22;12319;49.204;8.116;2024-03-08T07:34:57;5.30;99.90
24164;DHT22;12319;49.204;8.116;2024-03-08T07:37:22;5.40;99.90
24164;DHT22;12319;49.204;8.116;2024-03-08T07:39:48;5.50;99.90
24164;DHT22;12319;49.204;8.116;2024-03-08T07:42:14;5.60;99.90
24164;DHT22;12319;49.204;8.116;2024-03-08T07:44:40;5.70;99.90
24164;DHT22;12319;49.204;8.116;2024-03-08T07:47:05;5.90;99.90
24164;DHT22;12319;49.204;8.116;2024-03-08T07:49:35;6.10;99.90
24164;DHT22;12319;49.204;8.116;2024-03-08T07:52:00;6.20;99.60
24164;DHT22;12319;49.204;8.116;2024-03-08T07:54:26;6.40;99.80
24164;DHT22;12319;49.204;8.116;2024-03-08T07:56:51;6.60;99.70
24164;DHT22;12319;49.204;8.116;2024-03-08T07:59:18;6.90;98.90
24164;DHT22;12319;49.204;8.116;2024-03-08T08:01:43;7.30;99.20
24164;DHT22;12319;49.204;8.116;2024-03-08T08:04:10;8.40;99.90
24164;DHT22;12319;49.204;8.116;2024-03-08T08:06:38;10.10;98.50
24164;DHT22;12319;49.204;8.116;2024-03-08T08:09:04;11.90;92.20
24164;DHT22;12319;49.204;8.116;2024-03-08T08:11:30;13.70;85.70
24164;DHT22;12319;49.204;8.116;2024-03-08T08:13:57;15.10;76.00
24164;DHT22;12319;49.204;8.116;2024-03-08T08:16:24;16.30;71.70
24164;DHT22;12319;49.204;8.116;2024-03-08T08:18:51;17.30;67.40
24164;DHT22;12319;49.204;8.116;2024-03-08T08:21:18;18.40;65.90
24164;DHT22;12319;49.204;8.116;2024-03-08T08:23:43;19.00;61.50
24164;DHT22;12319;49.204;8.116;2024-03-08T08:26:10;19.60;57.90
24164;DHT22;12319;49.204;8.116;2024-03-08T08:28:36;20.00;51.00
24164;DHT22;12319;49.204;8.116;2024-03-08T08:31:02;19.90;52.90
24164;DHT22;12319;49.204;8.116;2024-03-08T08:33:29;20.00;55.00
24164;DHT22;12319;49.204;8.116;2024-03-08T08:35:55;20.10;53.50
24164;DHT22;12319;49.204;8.116;2024-03-08T08:38:21;20.20;53.60
24164;DHT22;12319;49.204;8.116;2024-03-08T08:40:47;20.30;53.70
24164;DHT22;12319;49.204;8.116;2024-03-08T08:43:13;20.10;53.50
24164;DHT22;12319;49.204;8.116;2024-03-08T08:45:39;19.60;52.80
24164;DHT22;12319;49.204;8.116;2024-03-08T08:48:05;18.80;49.10
24164;DHT22;12319;49.204;8.116;2024-03-08T08:50:31;17.70;50.70
24164;DHT22;12319;49.204;8.116;2024-03-08T08:52:57;16.50;50.90
24164;DHT22;12319;49.204;8.116;2024-03-08T08:55:23;15.50;51.80
24164;DHT22;12319;49.204;8.116;2024-03-08T08:57:52;14.70;53.40
24164;DHT22;12319;49.204;8.116;2024-03-08T09:00:19;13.90;53.80
24164;DHT22;12319;49.204;8.116;2024-03-08T09:02:46;13.20;54.50
24164;DHT22;12319;49.204;8.116;2024-03-08T09:05:12;12.70;55.20
24164;DHT22;12319;49.204;8.116;2024-03-08T09:07:37;12.10;56.50
24164;DHT22;12319;49.204;8.116;2024-03-08T09:10:03;11.90;55.70
24164;DHT22;12319;49.204;8.116;2024-03-08T09:12:29;11.60;56.50
24164;DHT22;12319;49.204;8.116;2024-03-08T09:14:54;11.30;56.50
24164;DHT22;12319;49.204;8.116;2024-03-08T09:17:20;11.00;57.60
24164;DHT22;12319;49.204;8.116;2024-03-08T09:19:49;10.80;57.00
24164;DHT22;12319;49.204;8.116;2024-03-08T09:22:15;10.60;57.90
24164;DHT22;12319;49.204;8.116;2024-03-08T09:24:41;10.50;58.10
24164;DHT22;12319;49.204;8.116;2024-03-08T09:27:08;10.40;57.70
24164;DHT22;12319;49.204;8.116;2024-03-08T09:29:35;10.20;58.20
24164;DHT22;12319;49.204;8.116;2024-03-08T09:32:01;10.00;58.60
24164;DHT22;12319;49.204;8.116;2024-03-08T09:34:26;9.90;60.10
24164;DHT22;12319;49.204;8.116;2024-03-08T09:36:52;9.70;60.20
24164;DHT22;12319;49.204;8.116;2024-03-08T09:39:18;9.50;60.80
24164;DHT22;12319;49.204;8.116;2024-03-08T09:41:46;9.40;61.10
24164;DHT22;12319;49.204;8.116;2024-03-08T09:44:14;9.30;61.50
24164;DHT22;12319;49.204;8.116;2024-03-08T09:46:39;9.20;61.90
24164;DHT22;12319;49.204;8.116;2024-03-08T09:49:08;9.20;62.00
24164;DHT22;12319;49.204;8.116;2024-03-08T09:51:37;9.00;62.20
24164;DHT22;12319;49.204;8.116;2024-03-08T09:54:05;9.00;62.70
24164;DHT22;12319;49.204;8.116;2024-03-08T09:56:32;8.90;63.30
24164;DHT22;12319;49.204;8.116;2024-03-08T09:59:00;8.80;63.20
24164;DHT22;12319;49.204;8.116;2024-03-08T10:01:45;8.70;63.60
24164;DHT22;12319;49.204;8.116;2024-03-08T10:04:11;8.70;64.10
24164;DHT22;12319;49.204;8.116;2024-03-08T10:06:37;8.60;64.60
24164;DHT22;12319;49.204;8.116;2024-03-08T10:09:02;8.60;65.30
24164;DHT22;12319;49.204;8.116;2024-03-08T10:11:28;8.70;65.70
24164;DHT22;12319;49.204;8.116;2024-03-08T10:13:54;8.80;66.00
24164;DHT22;12319;49.204;8.116;2024-03-08T10:16:20;8.90;66.30
24164;DHT22;12319;49.204;8.116;2024-03-08T10:18:46;8.90;66.00
24164;DHT22;12319;49.204;8.116;2024-03-08T10:21:11;8.90;66.00
24164;DHT22;12319;49.204;8.116;2024-03-08T10:23:38;8.90;66.00
24164;DHT22;12319;49.204;8.116;2024-03-08T10:26:11;8.90;66.10
24164;DHT22;12319;49.204;8.116;2024-03-08T10:28:40;8.90;66.10
24164;DHT22;12319;49.204;8.116;2024-03-08T10:31:06;8.90;67.00
24164;DHT22;12319;49.204;8.116;2024-03-08T10:33:32;8.90;67.30
24164;DHT22;12319;49.204;8.116;2024-03-08T10:35:58;9.10;67.70
24164;DHT22;12319;49.204;8.116;2024-03-08T10:38:26;9.20;67.20
24164;DHT22;12319;49.204;8.116;2024-03-08T10:40:52;9.30;66.70
24164;DHT22;12319;49.204;8.116;2024-03-08T10:43:23;9.30;66.80
24164;DHT22;12319;49.204;8.116;2024-03-08T10:46:02;9.30;66.70
24164;DHT22;12319;49.204;8.116;2024-03-08T10:48:32;9.40;65.90
24164;DHT22;12319;49.204;8.116;2024-03-08T10:51:04;9.40;66.50
24164;DHT22;12319;49.204;8.116;2024-03-08T10:53:30;9.50;66.60
24164;DHT22;12319;49.204;8.116;2024-03-08T10:55:56;9.50;66.70
24164;DHT22;12319;49.204;8.116;2024-03-08T10:58:25;9.60;66.20
24164;DHT22;12319;49.204;8.116;2024-03-08T11:00:57;9.60;65.50
24164;DHT22;12319;49.204;8.116;2024-03-08T11:06:08;9.50;65.50
24164;DHT22;12319;49.204;8.116;2024-03-08T11:08:36;9.50;66.40
24164;DHT22;12319;49.204;8.116;2024-03-08T11:11:02;9.50;66.40
24164;DHT22;12319;49.204;8.116;2024-03-08T11:13:39;9.50;66.60
24164;DHT22;12319;49.204;8.116;2024-03-08T11:16:10;9.40;66.70
24164;DHT22;12319;49.204;8.116;2024-03-08T11:18:36;9.50;67.00
24164;DHT22;12319;49.204;8.116;2024-03-08T11:21:04;9.50;66.80
24164;DHT22;12319;49.204;8.116;2024-03-08T11:23:32;9.50;66.80
24164;DHT22;12319;49.204;8.116;2024-03-08T11:25:59;9.50;66.80
24164;DHT22;12319;49.204;8.116;2024-03-08T11:28:25;9.60;66.90
24164;DHT22;12319;49.204;8.116;2024-03-08T11:33:34;9.70;67.00
24164;DHT22;12319;49.204;8.116;2024-03-08T11:36:12;9.80;67.40
24164;DHT22;12319;49.204;8.116;2024-03-08T11:38:45;9.80;67.40
24164;DHT22;12319;49.204;8.116;2024-03-08T11:41:14;9.90;67.70
24164;DHT22;12319;49.204;8.116;2024-03-08T11:43:40;9.90;67.70
24164;DHT22;12319;49.204;8.116;2024-03-08T11:46:10;9.90;67.60
24164;DHT22;12319;49.204;8.116;2024-03-08T11:48:40;9.90;67.60
24164;DHT22;12319;49.204;8.116;2024-03-08T11:51:11;9.90;67.10
24164;DHT22;12319;49.204;8.116;2024-03-08T11:53:38;9.80;67.50
24164;DHT22;12319;49.204;8.116;2024-03-08T11:56:13;9.80;67.60
24164;DHT22;12319;49.204;8.116;2024-03-08T11:58:40;9.80;67.70
24164;DHT22;12319;49.204;8.116;2024-03-08T12:01:06;9.80;67.60
24164;DHT22;12319;49.204;8.116;2024-03-08T12:03:33;9.80;67.90
24164;DHT22;12319;49.204;8.116;2024-03-08T12:05:59;9.90;67.70
24164;DHT22;12319;49.204;8.116;2024-03-08T12:08:25;9.90;67.70
24164;DHT22;12319;49.204;8.116;2024-03-08T12:10:53;10.00;67.40
24164;DHT22;12319;49.204;8.116;2024-03-08T12:13:31;10.10;66.70
24164;DHT22;12319;49.204;8.116;2024-03-08T12:15:58;10.20;66.80
24164;DHT22;12319;49.204;8.116;2024-03-08T12:18:27;10.30;67.00
24164;DHT22;12319;49.204;8.116;2024-03-08T12:21:11;10.30;66.30
24164;DHT22;12319;49.204;8.116;2024-03-08T12:23:38;10.40;66.40
24164;DHT22;12319;49.204;8.116;2024-03-08T12:26:18;10.50;66.00
24164;DHT22;12319;49.204;8.116;2024-03-08T12:28:45;10.50;65.60
24164;DHT22;12319;49.204;8.116;2024-03-08T12:31:15;10.50;65.80
24164;DHT22;12319;49.204;8.116;2024-03-08T12:33:53;10.60;65.60
24164;DHT22;12319;49.204;8.116;2024-03-08T12:36:20;10.80;65.60
24164;DHT22;12319;49.204;8.116;2024-03-08T12:38:47;11.10;65.30
24164;DHT22;12319;49.204;8.116;2024-03-08T12:41:19;11.20;64.50
24164;DHT22;12319;49.204;8.116;2024-03-08T12:43:45;11.20;64.10
24164;DHT22;12319;49.204;8.116;2024-03-08T12:46:17;11.20;62.50
24164;DHT22;12319;49.204;8.116;2024-03-08T12:48:46;11.00;63.10
24164;DHT22;12319;49.204;8.116;2024-03-08T12:51:15;10.90;63.60
24164;DHT22;12319;49.204;8.116;2024-03-08T12:53:44;10.80;63.90
24164;DHT22;12319;49.204;8.116;2024-03-08T12:56:19;10.80;63.80
24164;DHT22;12319;49.204;8.116;2024-03-08T12:58:45;10.80;64.20
24164;DHT22;12319;49.204;8.116;2024-03-08T13:01:10;10.80;63.90
24164;DHT22;12319;49.204;8.116;2024-03-08T13:03:37;10.90;64.10
24164;DHT22;12319;49.204;8.116;2024-03-08T13:06:04;11.00;64.30
24164;DHT22;12319;49.204;8.116;2024-03-08T13:08:37;11.10;64.30
24164;DHT22;12319;49.204;8.116;2024-03-08T13:11:06;11.20;63.80
24164;DHT22;12319;49.204;8.116;2024-03-08T13:13:39;11.20;63.40
24164;DHT22;12319;49.204;8.116;2024-03-08T13:16:06;11.20;63.40
24164;DHT22;12319;49.204;8.116;2024-03-08T13:18:38;11.60;64.00
24164;DHT22;12319;49.204;8.116;2024-03-08T13:21:04;11.60;64.70
24164;DHT22;12319;49.204;8.116;2024-03-08T13:23:33;12.00;65.00
24164;DHT22;12319;49.204;8.116;2024-03-08T13:26:07;12.50;63.20
24164;DHT22;12319;49.204;8.116;2024-03-08T13:28:33;13.00;60.80
24164;DHT22;12319;49.204;8.116;2024-03-08T13:31:05;13.00;61.80
24164;DHT22;12319;49.204;8.116;2024-03-08T13:33:34;13.30;61.30
24164;DHT22;12319;49.204;8.116;2024-03-08T13:36:02;13.60;60.40
24164;DHT22;12319;49.204;8.116;2024-03-08T13:38:28;13.80;61.30
24164;DHT22;12319;49.204;8.116;2024-03-08T13:40:54;14.00;60.00
24164;DHT22;12319;49.204;8.116;2024-03-08T13:43:20;14.20;58.80
24164;DHT22;12319;49.204;8.116;2024-03-08T13:45:46;14.20;58.20
24164;DHT22;12319;49.204;8.116;2024-03-08T13:48:11;14.00;57.80
24164;DHT22;12319;49.204;8.116;2024-03-08T13:50:38;13.90;58.40
24164;DHT22;12319;49.204;8.116;2024-03-08T13:53:04;13.80;58.90
24164;DHT22;12319;49.204;8.116;2024-03-08T13:55:29;13.70;59.40
24164;DHT22;12319;49.204;8.116;2024-03-08T13:57:56;13.70;59.20
24164;DHT22;12319;49.204;8.116;2024-03-08T14:00:22;13.60;59.30
24164;DHT22;12319;49.204;8.116;2024-03-08T14:02:48;13.40;59.40
24164;DHT22;12319;49.204;8.116;2024-03-08T14:05:14;13.20;59.20
24164;DHT22;12319;49.204;8.116;2024-03-08T14:07:41;12.90;59.00
24164;DHT22;12319;49.204;8.116;2024-03-08T14:10:07;12.70;59.50
24164;DHT22;12319;49.204;8.116;2024-03-08T14:12:35;12.40;59.40
24164;DHT22;12319;49.204;8.116;2024-03-08T14:15:01;12.20;60.20
24164;DHT22;12319;49.204;8.116;2024-03-08T14:17:26;11.90;60.70
24164;DHT22;12319;49.204;8.116;2024-03-08T14:19:53;11.80;61.30
24164;DHT22;12319;49.204;8.116;2024-03-08T14:22:20;11.70;61.50
24164;DHT22;12319;49.204;8.116;2024-03-08T14:24:45;11.60;62.10
24164;DHT22;12319;49.204;8.116;2024-03-08T14:27:11;11.50;62.30
24164;DHT22;12319;49.204;8.116;2024-03-08T14:29:37;11.50;62.50
24164;DHT22;12319;49.204;8.116;2024-03-08T14:32:04;11.30;62.40
24164;DHT22;12319;49.204;8.116;2024-03-08T14:34:32;11.20;62.80
24164;DHT22;12319;49.204;8.116;2024-03-08T14:36:59;11.10;63.30
24164;DHT22;12319;49.204;8.116;2024-03-08T14:39:25;11.00;63.50
24164;DHT22;12319;49.204;8.116;2024-03-08T14:41:54;11.00;63.90
24164;DHT22;12319;49.204;8.116;2024-03-08T14:44:20;11.00;64.40
24164;DHT22;12319;49.204;8.116;2024-03-08T14:46:46;10.90;64.30
24164;DHT22;12319;49.204;8.116;2024-03-08T14:49:12;10.90;64.70
24164;DHT22;12319;49.204;8.116;2024-03-08T14:51:38;10.90;64.50
24164;DHT22;12319;49.204;8.116;2024-03-08T14:54:04;10.90;64.60
24164;DHT22;12319;49.204;8.116;2024-03-08T14:56:35;11.00;64.60
24164;DHT22;12319;49.204;8.116;2024-03-08T14:59:00;10.90;64.20
24164;DHT22;12319;49.204;8.116;2024-03-08T15:01:26;10.90;64.30
24164;DHT22;12319;49.204;8.116;2024-03-08T15:03:57;10.90;64.80
24164;DHT22;12319;49.204;8.116;2024-03-08T15:06:28;10.80;65.10
24164;DHT22;12319;49.204;8.116;2024-03-08T15:08:56;10.80;65.00
24164;DHT22;12319;49.204;8.116;2024-03-08T15:11:23;10.80;64.90
24164;DHT22;12319;49.204;8.116;2024-03-08T15:13:50;10.80;65.20
24164;DHT22;12319;49.204;8.116;2024-03-08T15:16:19;10.80;65.30
24164;DHT22;12319;49.204;8.116;2024-03-08T15:18:48;10.80;65.40
24164;DHT22;12319;49.204;8.116;2024-03-08T15:21:17;10.80;65.80
24164;DHT22;12319;49.204;8.116;2024-03-08T15:23:44;10.80;65.50
24164;DHT22;12319;49.204;8.116;2024-03-08T15:26:15;10.80;65.60
24164;DHT22;12319;49.204;8.116;2024-03-08T15:28:42;10.80;65.80
24164;DHT22;12319;49.204;8.116;2024-03-08T15:31:07;10.80;66.00
24164;DHT22;12319;49.204;8.116;2024-03-08T15:33:34;10.80;65.90
24164;DHT22;12319;49.204;8.116;2024-03-08T15:36:00;10.80;66.00
24164;DHT22;12319;49.204;8.116;2024-03-08T15:38:32;10.80;65.40
24164;DHT22;12319;49.204;8.116;2024-03-08T15:40:58;10.80;66.30
24164;DHT22;12319;49.204;8.116;2024-03-08T15:43:23;10.80;66.30